Terminal Aerodrome Forecast
Issued by NWS

Current Version | Previous Version | Graphics & Text | Print | Product List | Glossary On
Versions: 1 2 3 4 5 6 7 8 9 10 11 12 13 14 15 16 17 18 19 20 21 22 23 24
368
FTPQ31 PGUM 200520
TAFKMJ
TAF
PKMJ 200520Z 2006/2106 12008KT P6SM VCSH SCT014 BKN045 BKN110=

USA.gov is the U.S. government's official web portal to all federal, state and local government web resources and services.